Time,TemperatureF,DewpointF,PressureIn,WindDirection,WindDirectionDegrees,WindSpeedMPH,WindSpeedGustMPH,Humidity,HourlyPrecipIn,Conditions,Clouds,dailyrainin,SoftwareType,DateUTC
2013-03-31 00:00:00,41.0,33.0,22.74,West,268,0.0,0.0,73,0.00,CLR,,0.00,WeatherDisplay:10.37,2013-03-31 04:00:00,
2013-03-31 00:05:00,40.8,32.5,22.74,West,268,0.0,0.0,72,0.00,CLR,,0.00,WeatherDisplay:10.37,2013-03-31 04:05:00,
2013-03-31 00:10:00,40.6,32.3,22.74,West,268,0.0,0.0,72,0.00,CLR,,0.00,WeatherDisplay:10.37,2013-03-31 04:10:00,
2013-03-31 00:15:00,40.5,32.5,22.74,West,268,0.0,0.0,73,0.00,CLR,,0.00,WeatherDisplay:10.37,2013-03-31 04:15:00,
2013-03-31 00:20:00,40.4,32.4,22.74,West,268,0.0,0.0,73,0.00,CLR,,0.00,WeatherDisplay:10.37,2013-03-31 04:20:00,
2013-03-31 00:25:00,40.2,32.2,22.74,West,268,0.0,0.0,73,0.00,CLR,,0.00,WeatherDisplay:10.37,2013-03-31 04:25:00,
2013-03-31 00:30:00,40.0,32.0,22.74,West,268,0.0,0.0,73,0.00,CLR,,0.00,WeatherDisplay:10.37,2013-03-31 04:30:00,
2013-03-31 00:35:00,40.0,32.4,22.74,West,268,0.0,0.0,74,0.00,CLR,,0.00,WeatherDisplay:10.37,2013-03-31 04:35:00,
2013-03-31 00:40:00,39.9,32.6,22.74,West,268,0.0,0.0,75,0.00,CLR,,0.00,WeatherDisplay:10.37,2013-03-31 04:40:00,
2013-03-31 00:45:00,39.8,32.5,22.74,West,268,0.0,0.0,75,0.00,CLR,,0.00,WeatherDisplay:10.37,2013-03-31 04:45:00,
2013-03-31 00:50:00,39.8,32.8,22.74,West,268,0.0,0.0,76,0.00,CLR,,0.00,WeatherDisplay:10.37,2013-03-31 04:50:00,
2013-03-31 00:55:00,39.9,33.6,22.74,West,268,0.0,0.0,78,0.00,CLR,,0.00,WeatherDisplay:10.37,2013-03-31 04:55:00,
2013-03-31 01:00:00,40.0,34.0,22.74,West,268,0.0,0.0,79,0.00,CLR,,0.00,WeatherDisplay:10.37,2013-03-31 05:00:00,
2013-03-31 01:05:00,40.0,33.7,22.74,West,268,0.0,0.0,78,0.00,CLR,,0.00,WeatherDisplay:10.37,2013-03-31 05:05:00,
2013-03-31 01:10:00,39.8,32.8,22.74,West,268,0.0,0.0,76,0.00,CLR,,0.00,WeatherDisplay:10.37,2013-03-31 05:10:00,
2013-03-31 01:15:00,39.6,32.7,22.74,West,268,0.0,0.0,76,0.00,CLR,,0.00,WeatherDisplay:10.37,2013-03-31 05:15:00,
2013-03-31 01:20:00,39.6,32.7,22.74,West,268,0.0,0.0,76,0.00,CLR,,0.00,WeatherDisplay:10.37,2013-03-31 05:20:00,
2013-03-31 01:25:00,39.6,33.0,22.74,West,268,0.0,0.0,77,0.00,CLR,,0.00,WeatherDisplay:10.37,2013-03-31 05:25:00,
2013-03-31 01:30:00,39.5,33.2,22.74,West,268,0.0,0.0,78,0.00,CLR,,0.00,WeatherDisplay:10.37,2013-03-31 05:30:00,
2013-03-31 01:35:00,39.4,33.4,22.74,West,268,0.0,0.0,79,0.00,CLR,,0.00,WeatherDisplay:10.37,2013-03-31 05:35:00,
2013-03-31 01:40:00,39.4,33.4,22.74,West,268,0.0,0.0,79,0.00,CLR,,0.00,WeatherDisplay:10.37,2013-03-31 05:40:00,
2013-03-31 01:45:00,39.4,33.4,22.74,West,268,0.0,0.0,79,0.00,CLR,,0.00,WeatherDisplay:10.37,2013-03-31 05:45:00,
2013-03-31 01:50:00,39.3,33.0,22.74,West,268,0.0,0.0,78,0.00,CLR,,0.00,WeatherDisplay:10.37,2013-03-31 05:50:00,
2013-03-31 01:55:00,39.1,32.8,22.74,West,268,0.0,0.0,78,0.00,CLR,,0.00,WeatherDisplay:10.37,2013-03-31 05:55:00,
2013-03-31 02:00:00,38.9,32.6,22.74,West,268,0.0,0.0,78,0.00,CLR,,0.00,WeatherDisplay:10.37,2013-03-31 06:00:00,
2013-03-31 02:05:00,39.0,33.0,22.74,West,268,0.0,0.0,79,0.00,CLR,,0.00,WeatherDisplay:10.37,2013-03-31 06:05:00,
2013-03-31 02:10:00,39.1,33.5,22.74,West,268,0.0,0.0,80,0.00,CLR,,0.00,WeatherDisplay:10.37,2013-03-31 06:10:00,
2013-03-31 02:15:00,39.1,32.8,22.74,West,268,0.0,0.0,78,0.00,CLR,,0.00,WeatherDisplay:10.37,2013-03-31 06:15:00,
2013-03-31 02:20:00,39.1,33.1,22.74,West,268,0.0,0.0,79,0.00,CLR,,0.00,WeatherDisplay:10.37,2013-03-31 06:20:00,
2013-03-31 02:25:00,38.9,32.9,22.74,West,268,0.0,0.0,79,0.00,CLR,,0.00,WeatherDisplay:10.37,2013-03-31 06:25:00,
2013-03-31 02:30:00,38.8,32.8,22.74,West,268,0.0,0.0,79,0.00,CLR,,0.00,WeatherDisplay:10.37,2013-03-31 06:30:00,
2013-03-31 02:35:00,38.6,33.0,22.74,West,268,0.0,0.0,80,0.00,CLR,,0.00,WeatherDisplay:10.37,2013-03-31 06:35:00,
2013-03-31 02:40:00,38.5,33.2,22.74,West,268,0.0,0.0,81,0.00,CLR,,0.00,WeatherDisplay:10.37,2013-03-31 06:40:00,
2013-03-31 02:45:00,38.6,33.3,22.74,West,268,0.0,0.0,81,0.00,CLR,,0.00,WeatherDisplay:10.37,2013-03-31 06:45:00,
2013-03-31 02:50:00,38.5,32.9,22.74,West,268,0.0,0.0,80,0.00,CLR,,0.00,WeatherDisplay:10.37,2013-03-31 06:50:00,
2013-03-31 02:55:00,38.5,33.2,22.74,West,268,0.0,0.0,81,0.00,CLR,,0.00,WeatherDisplay:10.37,2013-03-31 06:55:00,
2013-03-31 03:00:00,38.5,33.2,22.74,West,268,0.0,0.0,81,0.00,CLR,,0.00,WeatherDisplay:10.37,2013-03-31 07:00:00,
2013-03-31 03:05:00,38.4,33.1,22.74,West,268,0.0,0.0,81,0.00,CLR,,0.00,WeatherDisplay:10.37,2013-03-31 07:05:00,
2013-03-31 03:10:00,38.4,33.1,22.74,West,268,0.0,0.0,81,0.00,CLR,,0.00,WeatherDisplay:10.37,2013-03-31 07:10:00,
2013-03-31 03:15:00,38.3,33.0,22.74,West,268,0.0,0.0,81,0.00,CLR,,0.00,WeatherDisplay:10.37,2013-03-31 07:15:00,
2013-03-31 03:20:00,38.3,33.0,22.74,West,268,0.0,0.0,81,0.00,CLR,,0.00,WeatherDisplay:10.37,2013-03-31 07:20:00,
2013-03-31 03:25:00,38.3,33.6,22.74,West,268,0.0,0.0,83,0.00,CLR,,0.00,WeatherDisplay:10.37,2013-03-31 07:25:00,
2013-03-31 03:30:00,38.3,33.3,22.74,West,268,0.0,0.0,82,0.00,CLR,,0.00,WeatherDisplay:10.37,2013-03-31 07:30:00,
2013-03-31 03:35:00,38.4,33.7,22.74,West,268,0.0,0.0,83,0.00,CLR,,0.00,WeatherDisplay:10.37,2013-03-31 07:35:00,
2013-03-31 03:40:00,38.5,33.8,22.74,West,268,0.0,0.0,83,0.00,CLR,,0.00,WeatherDisplay:10.37,2013-03-31 07:40:00,
2013-03-31 03:45:00,38.6,33.9,22.74,West,268,0.0,0.0,83,0.00,CLR,,0.00,WeatherDisplay:10.37,2013-03-31 07:45:00,
2013-03-31 03:50:00,38.7,34.0,22.74,West,268,0.0,0.0,83,0.00,CLR,,0.00,WeatherDisplay:10.37,2013-03-31 07:50:00,
2013-03-31 03:55:00,38.6,33.6,22.74,West,268,0.0,0.0,82,0.00,CLR,,0.00,WeatherDisplay:10.37,2013-03-31 07:55:00,
2013-03-31 04:00:00,38.6,33.9,22.74,West,268,0.0,0.0,83,0.00,CLR,,0.00,WeatherDisplay:10.37,2013-03-31 08:00:00,
2013-03-31 04:05:00,38.5,33.8,22.74,West,268,0.0,0.0,83,0.00,CLR,,0.00,WeatherDisplay:10.37,2013-03-31 08:05:00,
2013-03-31 04:11:00,38.5,33.8,22.74,West,268,0.0,0.0,83,0.00,CLR,,0.00,WeatherDisplay:10.37,2013-03-31 08:11:00,
2013-03-31 04:16:00,38.5,33.8,31.40,West,268,0.0,0.0,83,0.00,CLR,,0.00,WeatherDisplay:10.37,2013-03-31 08:16:00,
2013-03-31 04:21:00,38.6,34.2,22.74,West,268,0.0,0.0,84,0.00,CLR,,0.00,WeatherDisplay:10.37,2013-03-31 08:21:00,
2013-03-31 04:26:00,38.6,33.9,22.74,West,268,0.0,0.0,83,0.00,CLR,,0.00,WeatherDisplay:10.37,2013-03-31 08:26:00,
2013-03-31 04:31:00,38.6,33.9,22.74,West,268,0.0,0.0,83,0.00,CLR,,0.00,WeatherDisplay:10.37,2013-03-31 08:31:00,
2013-03-31 04:36:00,38.6,33.9,22.74,West,268,0.0,0.0,83,0.00,CLR,,0.00,WeatherDisplay:10.37,2013-03-31 08:36:00,
2013-03-31 04:41:00,38.7,34.3,22.74,West,268,0.0,0.0,84,0.00,CLR,,0.00,WeatherDisplay:10.37,2013-03-31 08:41:00,
2013-03-31 04:46:00,38.8,34.4,22.74,West,268,0.0,0.0,84,0.00,CLR,,0.00,WeatherDisplay:10.37,2013-03-31 08:46:00,
2013-03-31 04:51:00,39.0,34.6,22.74,West,268,0.0,0.0,84,0.00,CLR,,0.00,WeatherDisplay:10.37,2013-03-31 08:51:00,
2013-03-31 04:56:00,39.1,34.7,22.74,West,268,0.0,0.0,84,0.00,CLR,,0.00,WeatherDisplay:10.37,2013-03-31 08:56:00,
2013-03-31 05:01:00,39.3,34.9,22.74,West,268,0.0,0.0,84,0.00,CLR,,0.00,WeatherDisplay:10.37,2013-03-31 09:01:00,
2013-03-31 05:07:00,39.3,34.3,22.74,West,268,0.0,0.0,82,0.00,CLR,,0.00,WeatherDisplay:10.37,2013-03-31 09:07:00,
2013-03-31 05:12:00,39.4,34.1,22.74,West,268,0.0,0.0,81,0.00,CLR,,0.00,WeatherDisplay:10.37,2013-03-31 09:12:00,
2013-03-31 05:17:00,39.3,33.6,22.74,West,268,0.0,0.0,80,0.00,CLR,,0.00,WeatherDisplay:10.37,2013-03-31 09:17:00,
2013-03-31 05:22:00,39.3,33.3,22.74,West,268,0.0,0.0,79,0.00,CLR,,0.00,WeatherDisplay:10.37,2013-03-31 09:22:00,
2013-03-31 05:27:00,39.3,33.3,22.74,West,268,0.0,0.0,79,0.00,CLR,,0.00,WeatherDisplay:10.37,2013-03-31 09:27:00,
2013-03-31 05:32:00,39.3,33.3,22.74,West,268,0.0,0.0,79,0.00,CLR,,0.00,WeatherDisplay:10.37,2013-03-31 09:32:00,
2013-03-31 05:37:00,39.3,33.3,22.74,West,268,0.0,0.0,79,0.00,CLR,,0.00,WeatherDisplay:10.37,2013-03-31 09:37:00,
2013-03-31 05:42:00,39.3,33.0,22.74,West,268,0.0,0.0,78,0.00,CLR,,0.00,WeatherDisplay:10.37,2013-03-31 09:42:00,
2013-03-31 05:47:00,39.4,33.4,22.74,West,268,0.0,0.0,79,0.00,CLR,,0.00,WeatherDisplay:10.37,2013-03-31 09:47:00,
2013-03-31 05:52:00,39.5,33.2,22.74,West,268,1.0,0.0,78,0.00,CLR,,0.00,WeatherDisplay:10.37,2013-03-31 09:52:00,
2013-03-31 05:57:00,39.6,33.0,22.74,West,268,1.1,0.0,77,0.00,CLR,,0.00,WeatherDisplay:10.37,2013-03-31 09:57:00,
2013-03-31 06:03:00,39.6,33.0,22.74,West,268,0.0,0.0,77,0.00,CLR,,0.00,WeatherDisplay:10.37,2013-03-31 10:03:00,
2013-03-31 06:08:00,39.7,33.4,22.74,West,268,3.5,3.5,78,0.00,CLR,,0.00,WeatherDisplay:10.37,2013-03-31 10:08:00,
2013-03-31 06:13:00,39.7,34.0,22.74,South,191,4.6,4.6,80,0.00,CLR,,0.00,WeatherDisplay:10.37,2013-03-31 10:13:00,
2013-03-31 06:18:00,40.0,34.0,22.74,SSW,194,5.8,5.8,79,0.00,CLR,,0.00,WeatherDisplay:10.37,2013-03-31 10:18:00,
2013-03-31 06:23:00,40.2,34.2,22.74,SSW,201,3.5,3.5,79,0.00,CLR,,0.00,WeatherDisplay:10.37,2013-03-31 10:23:00,
2013-03-31 06:28:00,40.4,34.7,22.74,WSW,253,2.3,2.3,80,0.00,CLR,,0.00,WeatherDisplay:10.37,2013-03-31 10:28:00,
2013-03-31 06:33:00,40.7,35.3,22.74,South,169,1.1,1.1,81,0.00,CLR,,0.00,WeatherDisplay:10.37,2013-03-31 10:33:00,
2013-03-31 06:38:00,41.1,35.7,22.74,SSW,212,0.0,0.0,81,0.00,CLR,,0.00,WeatherDisplay:10.37,2013-03-31 10:38:00,
2013-03-31 06:43:00,41.3,35.9,22.74,SSW,211,0.0,0.0,81,0.00,CLR,,0.00,WeatherDisplay:10.37,2013-03-31 10:43:00,
2013-03-31 06:48:00,41.5,36.4,22.74,SSW,192,2.3,2.3,82,0.01,RA,,0.01,WeatherDisplay:10.37,2013-03-31 10:48:00,
2013-03-31 06:53:00,41.7,36.3,22.74,South,188,0.0,0.0,81,0.01,RA,,0.01,WeatherDisplay:10.37,2013-03-31 10:53:00,
2013-03-31 06:58:00,41.8,36.4,22.74,South,188,0.0,0.0,81,0.01,,,0.01,WeatherDisplay:10.37,2013-03-31 10:58:00,
2013-03-31 07:03:00,41.9,37.1,22.74,East,80,0.0,0.0,83,0.01,CLR,,0.01,WeatherDisplay:10.37,2013-03-31 11:03:00,
2013-03-31 07:08:00,42.0,37.8,22.74,East,80,0.0,0.0,85,0.02,RA,,0.02,WeatherDisplay:10.37,2013-03-31 11:08:00,
2013-03-31 07:13:00,42.0,37.8,22.74,East,80,0.0,0.0,85,0.02,RA,,0.02,WeatherDisplay:10.37,2013-03-31 11:13:00,
2013-03-31 07:18:00,42.1,38.5,22.74,East,80,0.0,0.0,87,0.02,,,0.02,WeatherDisplay:10.37,2013-03-31 11:18:00,
2013-03-31 07:23:00,42.0,38.4,22.74,East,80,0.0,0.0,87,0.02,CLR,,0.02,WeatherDisplay:10.37,2013-03-31 11:23:00,
2013-03-31 07:28:00,41.9,38.3,22.74,East,80,0.0,0.0,87,0.02,CLR,,0.02,WeatherDisplay:10.37,2013-03-31 11:28:00,
2013-03-31 07:33:00,41.5,37.9,22.74,East,80,0.0,0.0,87,0.02,CLR,,0.02,WeatherDisplay:10.37,2013-03-31 11:33:00,
2013-03-31 07:38:00,41.3,38.0,22.74,East,80,0.0,0.0,88,0.02,CLR,,0.02,WeatherDisplay:10.37,2013-03-31 11:38:00,
2013-03-31 07:43:00,41.3,38.3,22.74,ESE,103,1.1,0.0,89,0.02,CLR,,0.02,WeatherDisplay:10.37,2013-03-31 11:43:00,
2013-03-31 07:48:00,41.3,38.3,22.74,ESE,104,0.0,0.0,89,0.02,RA,,0.03,WeatherDisplay:10.37,2013-03-31 11:48:00,
2013-03-31 07:53:00,41.4,38.7,22.74,ESE,104,0.0,0.0,90,0.02,RA,,0.03,WeatherDisplay:10.37,2013-03-31 11:53:00,
2013-03-31 07:58:00,41.3,38.6,22.74,ESE,104,0.0,0.0,90,0.03,RA,,0.04,WeatherDisplay:10.37,2013-03-31 11:58:00,
2013-03-31 08:03:00,41.3,38.9,22.74,ESE,104,0.0,0.0,91,0.03,RA,,0.04,WeatherDisplay:10.37,2013-03-31 12:03:00,
2013-03-31 08:08:00,41.4,39.0,22.74,ESE,104,0.0,0.0,91,0.03,RA,,0.05,WeatherDisplay:10.37,2013-03-31 12:08:00,
2013-03-31 08:13:00,41.3,38.9,22.74,ESE,103,0.0,0.0,91,0.03,RA,,0.05,WeatherDisplay:10.37,2013-03-31 12:13:00,
2013-03-31 08:18:00,41.2,39.1,22.74,ESE,104,0.0,0.0,92,0.03,,,0.05,WeatherDisplay:10.37,2013-03-31 12:18:00,
2013-03-31 08:23:00,41.2,39.1,22.74,ESE,103,0.0,0.0,92,0.03,CLR,,0.06,WeatherDisplay:10.37,2013-03-31 12:23:00,
2013-03-31 08:28:00,41.1,39.0,22.74,ESE,104,0.0,0.0,92,0.04,RA,,0.06,WeatherDisplay:10.37,2013-03-31 12:28:00,
2013-03-31 08:33:00,41.2,39.1,22.74,ESE,104,0.0,0.0,92,0.04,RA,,0.06,WeatherDisplay:10.37,2013-03-31 12:33:00,
2013-03-31 08:38:00,41.3,39.4,22.74,ESE,104,0.0,0.0,93,0.05,RA,,0.07,WeatherDisplay:10.37,2013-03-31 12:38:00,
2013-03-31 08:43:00,41.5,39.6,22.74,ESE,104,0.0,0.0,93,0.05,RA,,0.07,WeatherDisplay:10.37,2013-03-31 12:43:00,
2013-03-31 08:48:00,41.5,39.6,22.74,ESE,104,0.0,0.0,93,0.05,RA,,0.08,WeatherDisplay:10.37,2013-03-31 12:48:00,
2013-03-31 08:53:00,41.7,39.8,22.74,ESE,103,0.0,0.0,93,0.05,RA,,0.08,WeatherDisplay:10.37,2013-03-31 12:53:00,
2013-03-31 08:58:00,41.9,40.0,22.74,ESE,104,0.0,0.0,93,0.04,CLR,,0.08,WeatherDisplay:10.37,2013-03-31 12:58:00,
2013-03-31 09:04:00,42.0,40.1,22.74,ESE,103,0.0,0.0,93,0.04,CLR,,0.08,WeatherDisplay:10.37,2013-03-31 13:04:00,
2013-03-31 09:09:00,42.2,40.3,22.74,ESE,104,0.0,0.0,93,0.03,CLR,,0.08,WeatherDisplay:10.37,2013-03-31 13:09:00,
2013-03-31 09:14:00,42.3,40.7,22.74,ESE,103,0.0,0.0,94,0.04,RA,,0.09,WeatherDisplay:10.37,2013-03-31 13:14:00,
2013-03-31 09:19:00,42.4,40.8,22.74,NE,45,0.0,0.0,94,0.04,RA,,0.09,WeatherDisplay:10.37,2013-03-31 13:19:00,
2013-03-31 09:24:00,42.6,41.0,22.74,NE,38,0.0,0.0,94,0.03,CLR,,0.09,WeatherDisplay:10.37,2013-03-31 13:24:00,
2013-03-31 09:29:00,42.7,41.1,22.74,NE,39,0.0,0.0,94,0.03,CLR,,0.09,WeatherDisplay:10.37,2013-03-31 13:29:00,
2013-03-31 09:34:00,42.8,41.2,22.74,NE,39,0.0,0.0,94,0.03,CLR,,0.09,WeatherDisplay:10.37,2013-03-31 13:34:00,
2013-03-31 09:39:00,43.0,41.4,22.74,NE,38,0.0,0.0,94,0.02,CLR,,0.09,WeatherDisplay:10.37,2013-03-31 13:39:00,
2013-03-31 09:44:00,43.3,41.7,22.74,NE,38,0.0,0.0,94,0.02,CLR,,0.09,WeatherDisplay:10.37,2013-03-31 13:44:00,
2013-03-31 09:49:00,43.4,41.8,22.74,NE,39,0.0,0.0,94,0.02,RA,,0.09,WeatherDisplay:10.37,2013-03-31 13:49:00,
2013-03-31 09:54:00,43.5,41.9,22.74,NE,39,0.0,0.0,94,0.02,RA,,0.09,WeatherDisplay:10.37,2013-03-31 13:54:00,
2013-03-31 09:59:00,43.6,42.0,22.74,NE,39,1.1,0.0,94,0.02,CLR,,0.09,WeatherDisplay:10.37,2013-03-31 13:59:00,
2013-03-31 10:04:00,43.8,42.2,22.74,NE,38,0.0,0.0,94,0.02,CLR,,0.09,WeatherDisplay:10.37,2013-03-31 14:04:00,
2013-03-31 10:09:00,44.0,42.4,22.74,NE,39,0.0,0.0,94,0.02,CLR,,0.09,WeatherDisplay:10.37,2013-03-31 14:09:00,
2013-03-31 10:14:00,44.1,42.5,22.74,NE,38,0.0,0.0,94,0.01,CLR,,0.09,WeatherDisplay:10.37,2013-03-31 14:14:00,
2013-03-31 10:19:00,44.3,43.0,22.74,NE,39,0.0,0.0,95,0.02,RA,,0.10,WeatherDisplay:10.37,2013-03-31 14:19:00,
2013-03-31 10:24:00,44.5,43.2,22.74,NE,38,0.0,0.0,95,0.02,RA,,0.10,WeatherDisplay:10.37,2013-03-31 14:24:00,
2013-03-31 10:29:00,44.7,43.4,22.74,NE,39,0.0,0.0,95,0.02,,,0.10,WeatherDisplay:10.37,2013-03-31 14:29:00,
2013-03-31 10:34:00,44.8,43.5,22.74,NE,39,0.0,0.0,95,0.02,CLR,,0.10,WeatherDisplay:10.37,2013-03-31 14:34:00,
2013-03-31 10:39:00,45.0,43.7,22.74,NE,39,0.0,0.0,95,0.02,CLR,,0.10,WeatherDisplay:10.37,2013-03-31 14:39:00,
2013-03-31 10:44:00,45.1,43.8,22.74,NE,39,0.0,0.0,95,0.02,CLR,,0.10,WeatherDisplay:10.37,2013-03-31 14:44:00,
2013-03-31 10:49:00,45.3,44.0,22.74,NE,39,0.0,0.0,95,0.01,CLR,,0.10,WeatherDisplay:10.37,2013-03-31 14:49:00,
2013-03-31 10:54:00,45.5,44.2,22.74,NE,38,0.0,0.0,95,0.01,CLR,,0.10,WeatherDisplay:10.37,2013-03-31 14:54:00,
2013-03-31 10:59:00,45.7,44.4,22.74,NE,39,0.0,0.0,95,0.01,CLR,,0.10,WeatherDisplay:10.37,2013-03-31 14:59:00,
2013-03-31 11:04:00,45.8,44.4,22.74,NE,39,0.0,0.0,95,0.01,CLR,,0.10,WeatherDisplay:10.37,2013-03-31 15:04:00,
2013-03-31 11:09:00,45.9,44.5,22.74,NE,39,0.0,0.0,95,0.01,CLR,,0.10,WeatherDisplay:10.37,2013-03-31 15:09:00,
2013-03-31 11:14:00,46.0,44.6,22.74,NE,39,0.0,0.0,95,0.01,CLR,,0.10,WeatherDisplay:10.37,2013-03-31 15:14:00,
2013-03-31 11:19:00,46.1,44.7,22.74,NE,39,0.0,0.0,95,0.00,CLR,,0.10,WeatherDisplay:10.37,2013-03-31 15:19:00,
2013-03-31 11:24:00,46.4,45.0,22.74,NE,38,0.0,0.0,95,0.00,CLR,,0.10,WeatherDisplay:10.37,2013-03-31 15:24:00,
2013-03-31 11:29:00,46.4,45.0,22.74,NE,38,0.0,0.0,95,0.00,CLR,,0.10,WeatherDisplay:10.37,2013-03-31 15:29:00,
2013-03-31 11:34:00,46.5,45.1,22.74,NE,38,1.1,0.0,95,0.00,CLR,,0.10,WeatherDisplay:10.37,2013-03-31 15:34:00,
2013-03-31 11:39:00,46.7,45.3,22.74,NE,38,0.0,0.0,95,0.00,CLR,,0.10,WeatherDisplay:10.37,2013-03-31 15:39:00,
2013-03-31 11:44:00,46.8,45.4,22.74,NE,39,1.1,1.1,95,0.00,CLR,,0.10,WeatherDisplay:10.37,2013-03-31 15:44:00,
2013-03-31 11:49:00,46.9,45.5,22.74,NE,38,0.0,0.0,95,0.00,CLR,,0.10,WeatherDisplay:10.37,2013-03-31 15:49:00,
2013-03-31 11:54:00,46.8,45.4,22.74,NE,38,1.1,0.0,95,0.00,CLR,,0.10,WeatherDisplay:10.37,2013-03-31 15:54:00,
2013-03-31 11:59:00,46.9,45.5,22.74,NE,39,0.0,0.0,95,0.00,CLR,,0.10,WeatherDisplay:10.37,2013-03-31 15:59:00,
2013-03-31 12:04:00,47.3,45.9,22.74,NE,38,0.0,0.0,95,0.00,CLR,,0.10,WeatherDisplay:10.37,2013-03-31 16:04:00,
2013-03-31 12:09:00,47.5,46.1,22.74,East,99,0.0,0.0,95,0.00,CLR,,0.10,WeatherDisplay:10.37,2013-03-31 16:09:00,
2013-03-31 12:14:00,47.4,46.0,22.74,East,99,0.0,0.0,95,0.00,CLR,,0.10,WeatherDisplay:10.37,2013-03-31 16:14:00,
2013-03-31 12:19:00,47.4,46.0,22.74,East,99,0.0,0.0,95,0.00,CLR,,0.10,WeatherDisplay:10.37,2013-03-31 16:19:00,
2013-03-31 12:24:00,47.5,46.1,22.74,East,99,0.0,0.0,95,0.00,CLR,,0.10,WeatherDisplay:10.37,2013-03-31 16:24:00,
2013-03-31 12:29:00,47.5,46.1,22.74,East,99,0.0,0.0,95,0.00,CLR,,0.10,WeatherDisplay:10.37,2013-03-31 16:29:00,
2013-03-31 12:34:00,47.6,46.2,22.74,East,99,0.0,0.0,95,0.00,CLR,,0.10,WeatherDisplay:10.37,2013-03-31 16:34:00,
2013-03-31 12:39:00,47.8,46.4,22.74,East,99,0.0,0.0,95,0.00,CLR,,0.10,WeatherDisplay:10.37,2013-03-31 16:39:00,
2013-03-31 12:44:00,47.7,46.1,22.74,East,99,1.1,0.0,94,0.00,CLR,,0.10,WeatherDisplay:10.37,2013-03-31 16:44:00,
2013-03-31 12:49:00,47.5,45.9,22.74,East,99,1.1,0.0,94,0.00,CLR,,0.10,WeatherDisplay:10.37,2013-03-31 16:49:00,
2013-03-31 12:54:00,47.3,45.7,22.74,East,101,0.0,0.0,94,0.00,CLR,,0.10,WeatherDisplay:10.37,2013-03-31 16:54:00,
2013-03-31 12:59:00,47.5,45.9,22.74,East,101,0.0,0.0,94,0.00,CLR,,0.10,WeatherDisplay:10.37,2013-03-31 16:59:00,
2013-03-31 13:04:00,47.7,46.1,22.74,East,101,0.0,0.0,94,0.00,CLR,,0.10,WeatherDisplay:10.37,2013-03-31 17:04:00,
2013-03-31 13:09:00,47.8,46.2,22.74,WSW,244,0.0,0.0,94,0.00,CLR,,0.10,WeatherDisplay:10.37,2013-03-31 17:09:00,
2013-03-31 13:14:00,48.1,46.5,22.74,WSW,244,1.1,0.0,94,0.00,CLR,,0.10,WeatherDisplay:10.37,2013-03-31 17:14:00,
2013-03-31 13:19:00,48.4,46.8,22.74,WSW,243,0.0,0.0,94,0.00,CLR,,0.10,WeatherDisplay:10.37,2013-03-31 17:19:00,
2013-03-31 13:24:00,48.6,47.0,22.74,WSW,243,3.5,3.5,94,0.00,CLR,,0.10,WeatherDisplay:10.37,2013-03-31 17:24:00,
2013-03-31 13:29:00,48.7,47.1,22.74,WSW,242,0.0,0.0,94,0.00,CLR,,0.10,WeatherDisplay:10.37,2013-03-31 17:29:00,
2013-03-31 13:34:00,48.7,46.8,22.74,WSW,244,2.3,2.3,93,0.00,CLR,,0.10,WeatherDisplay:10.37,2013-03-31 17:34:00,
2013-03-31 13:39:00,48.9,47.2,22.74,WSW,243,0.0,0.1,94,0.00,CLR,,0.10,WeatherDisplay:10.37,2013-03-31 17:39:00,
2013-03-31 13:44:00,48.8,46.9,22.74,WSW,244,0.0,0.0,93,0.00,CLR,,0.10,WeatherDisplay:10.37,2013-03-31 17:44:00,
2013-03-31 13:49:00,49.0,47.1,22.74,WSW,243,0.0,0.0,93,0.00,CLR,,0.10,WeatherDisplay:10.37,2013-03-31 17:49:00,
2013-03-31 13:54:00,48.9,47.0,22.74,SSE,155,0.0,0.0,93,0.00,CLR,,0.10,WeatherDisplay:10.37,2013-03-31 17:54:00,
2013-03-31 13:59:00,49.0,47.1,22.74,South,175,1.1,2.1,93,0.00,CLR,,0.10,WeatherDisplay:10.37,2013-03-31 17:59:00,
2013-03-31 14:04:00,49.2,47.3,22.74,South,175,3.5,3.5,93,0.00,CLR,,0.10,WeatherDisplay:10.37,2013-03-31 18:04:00,
2013-03-31 14:10:00,49.6,47.7,22.74,WSW,238,4.0,4.0,93,0.00,CLR,,0.10,WeatherDisplay:10.37,2013-03-31 18:10:00,
2013-03-31 14:15:00,49.9,48.0,22.74,SW,221,7.0,7.0,93,0.00,CLR,,0.10,WeatherDisplay:10.37,2013-03-31 18:15:00,
2013-03-31 14:20:00,50.3,48.4,22.74,WSW,253,3.0,3.0,93,0.00,CLR,,0.10,WeatherDisplay:10.37,2013-03-31 18:20:00,
2013-03-31 14:25:00,50.8,48.6,22.74,WSW,254,3.0,3.0,92,0.00,CLR,,0.10,WeatherDisplay:10.37,2013-03-31 18:25:00,
2013-03-31 14:30:00,51.1,48.6,22.74,West,269,10.4,10.4,91,0.00,CLR,,0.10,WeatherDisplay:10.37,2013-03-31 18:30:00,
2013-03-31 14:35:00,51.4,48.9,22.74,West,260,3.5,3.5,91,0.00,CLR,,0.10,WeatherDisplay:10.37,2013-03-31 18:35:00,
2013-03-31 14:40:00,51.7,48.9,22.74,West,269,9.2,9.2,90,0.00,CLR,,0.10,WeatherDisplay:10.37,2013-03-31 18:40:00,
2013-03-31 14:45:00,51.8,48.7,22.74,WSW,244,6.9,6.9,89,0.00,CLR,,0.10,WeatherDisplay:10.37,2013-03-31 18:45:00,
2013-03-31 14:50:00,51.9,48.5,22.74,WSW,253,6.9,6.9,88,0.00,CLR,,0.10,WeatherDisplay:10.37,2013-03-31 18:50:00,
2013-03-31 14:55:00,51.8,48.4,22.74,West,267,5.8,5.8,88,0.00,CLR,,0.10,WeatherDisplay:10.37,2013-03-31 18:55:00,
2013-03-31 15:00:00,51.9,48.5,22.74,WSW,248,5.8,5.8,88,0.00,CLR,,0.10,WeatherDisplay:10.37,2013-03-31 19:00:00,
2013-03-31 15:05:00,52.0,48.3,22.74,SW,225,8.0,8.0,87,0.00,CLR,,0.10,WeatherDisplay:10.37,2013-03-31 19:05:00,
2013-03-31 15:10:00,52.2,48.4,22.74,West,272,7.0,7.0,87,0.00,CLR,,0.10,WeatherDisplay:10.37,2013-03-31 19:10:00,
2013-03-31 15:15:00,52.4,48.3,22.74,WSW,254,4.6,4.6,86,0.00,CLR,,0.10,WeatherDisplay:10.37,2013-03-31 19:15:00,
2013-03-31 15:20:00,52.6,48.5,22.74,West,271,8.1,8.1,86,0.00,CLR,,0.10,WeatherDisplay:10.37,2013-03-31 19:20:00,
2013-03-31 15:25:00,52.7,48.3,22.74,WSW,246,4.6,4.6,85,0.00,CLR,,0.10,WeatherDisplay:10.37,2013-03-31 19:25:00,
2013-03-31 15:30:00,52.6,48.5,22.74,WSW,247,3.5,3.5,86,0.00,CLR,,0.10,WeatherDisplay:10.37,2013-03-31 19:30:00,
2013-03-31 15:35:00,52.6,48.5,22.74,WSW,244,8.1,8.1,86,0.00,CLR,,0.10,WeatherDisplay:10.37,2013-03-31 19:35:00,
2013-03-31 15:40:00,52.4,48.3,22.74,West,269,5.8,5.8,86,0.00,CLR,,0.10,WeatherDisplay:10.37,2013-03-31 19:40:00,
2013-03-31 15:45:00,52.3,48.2,22.74,WSW,238,5.8,5.8,86,0.00,CLR,,0.10,WeatherDisplay:10.37,2013-03-31 19:45:00,
2013-03-31 15:50:00,52.2,48.1,22.74,WSW,246,3.5,3.5,86,0.00,CLR,,0.10,WeatherDisplay:10.37,2013-03-31 19:50:00,
2013-03-31 15:55:00,52.2,48.1,22.74,WSW,246,5.8,5.8,86,0.00,CLR,,0.10,WeatherDisplay:10.37,2013-03-31 19:55:00,
2013-03-31 16:00:00,52.1,48.3,22.74,WSW,256,4.0,4.0,87,0.00,CLR,,0.10,WeatherDisplay:10.37,2013-03-31 20:00:00,
2013-03-31 16:05:00,52.1,48.3,22.74,WSW,256,3.5,3.5,87,0.00,CLR,,0.10,WeatherDisplay:10.37,2013-03-31 20:05:00,
2013-03-31 16:10:00,52.0,48.3,22.74,WSW,252,5.8,5.8,87,0.00,CLR,,0.10,WeatherDisplay:10.37,2013-03-31 20:10:00,
2013-03-31 16:15:00,51.9,48.5,22.74,WSW,245,5.0,5.0,88,0.00,CLR,,0.10,WeatherDisplay:10.37,2013-03-31 20:15:00,
2013-03-31 16:20:00,51.8,48.4,22.74,WSW,246,1.1,0.0,88,0.00,CLR,,0.10,WeatherDisplay:10.37,2013-03-31 20:20:00,
2013-03-31 16:25:00,51.8,48.7,22.74,WSW,244,4.0,4.0,89,0.01,RA,,0.11,WeatherDisplay:10.37,2013-03-31 20:25:00,
2013-03-31 16:30:00,51.7,48.6,22.74,WSW,244,2.3,2.3,89,0.01,RA,,0.11,WeatherDisplay:10.37,2013-03-31 20:30:00,
2013-03-31 16:35:00,51.6,48.5,22.74,WSW,244,3.5,3.5,89,0.01,,,0.11,WeatherDisplay:10.37,2013-03-31 20:35:00,
2013-03-31 16:40:00,51.6,48.8,22.74,WSW,245,5.0,5.0,90,0.02,RA,,0.12,WeatherDisplay:10.37,2013-03-31 20:40:00,
2013-03-31 16:45:00,51.5,48.7,22.74,WSW,247,6.9,6.9,90,0.03,RA,,0.13,WeatherDisplay:10.37,2013-03-31 20:45:00,
2013-03-31 16:50:00,51.5,49.0,22.74,WSW,248,0.0,0.0,91,0.04,RA,,0.14,WeatherDisplay:10.37,2013-03-31 20:50:00,
2013-03-31 16:55:00,51.4,49.2,22.74,WSW,250,3.0,3.0,92,0.04,RA,,0.14,WeatherDisplay:10.37,2013-03-31 20:55:00,
2013-03-31 17:00:00,51.3,49.1,22.74,WSW,253,2.3,2.3,92,0.04,,,0.14,WeatherDisplay:10.37,2013-03-31 21:00:00,
2013-03-31 17:05:00,51.2,49.0,22.74,West,272,0.0,0.1,92,0.05,RA,,0.15,WeatherDisplay:10.37,2013-03-31 21:05:00,
2013-03-31 17:10:00,51.2,49.0,22.74,West,261,4.0,4.0,92,0.05,RA,,0.15,WeatherDisplay:10.37,2013-03-31 21:10:00,
2013-03-31 17:15:00,51.2,49.2,22.74,West,261,1.1,0.0,93,0.05,,,0.15,WeatherDisplay:10.37,2013-03-31 21:15:00,
2013-03-31 17:20:00,51.2,49.2,22.74,West,260,4.0,4.0,93,0.05,CLR,,0.15,WeatherDisplay:10.37,2013-03-31 21:20:00,
2013-03-31 17:25:00,51.2,49.2,22.74,West,259,5.8,5.8,93,0.04,CLR,,0.15,WeatherDisplay:10.37,2013-03-31 21:25:00,
2013-03-31 17:30:00,51.2,49.2,22.74,West,263,4.6,0.0,93,0.05,RA,,0.16,WeatherDisplay:10.37,2013-03-31 21:30:00,
2013-03-31 17:35:00,51.2,49.2,22.74,West,261,5.8,5.8,93,0.05,RA,,0.16,WeatherDisplay:10.37,2013-03-31 21:35:00,
2013-03-31 17:40:00,51.1,49.1,31.40,West,270,9.2,9.2,93,0.04,CLR,,0.16,WeatherDisplay:10.37,2013-03-31 21:40:00,
2013-03-31 17:45:00,51.0,49.0,22.74,WSW,253,5.8,5.8,93,0.03,CLR,,0.16,WeatherDisplay:10.37,2013-03-31 21:45:00,
2013-03-31 17:50:00,51.0,49.0,22.74,WSW,252,3.5,3.5,93,0.03,RA,,0.17,WeatherDisplay:10.37,2013-03-31 21:50:00,
2013-03-31 17:55:00,51.3,49.3,22.74,WSW,252,0.0,0.0,93,0.03,RA,,0.17,WeatherDisplay:10.37,2013-03-31 21:55:00,
2013-03-31 18:00:00,51.5,49.5,22.74,WSW,249,5.0,5.0,93,0.03,,,0.17,WeatherDisplay:10.37,2013-03-31 22:00:00,
2013-03-31 18:05:00,51.7,49.7,22.74,WSW,246,4.6,4.6,93,0.02,CLR,,0.17,WeatherDisplay:10.37,2013-03-31 22:05:00,
2013-03-31 18:10:00,51.8,49.5,22.74,WSW,256,8.1,8.1,92,0.02,CLR,,0.17,WeatherDisplay:10.37,2013-03-31 22:10:00,
2013-03-31 18:15:00,51.7,49.5,22.74,WSW,244,4.6,4.9,92,0.02,CLR,,0.17,WeatherDisplay:10.37,2013-03-31 22:15:00,
2013-03-31 18:21:00,51.6,49.1,22.74,West,267,12.0,12.0,91,0.02,CLR,,0.17,WeatherDisplay:10.37,2013-03-31 22:21:00,
2013-03-31 18:26:00,51.4,48.9,22.74,WSW,256,4.6,4.6,91,0.02,CLR,,0.17,WeatherDisplay:10.37,2013-03-31 22:26:00,
2013-03-31 18:31:00,51.3,48.8,22.74,WSW,241,5.8,5.8,91,0.01,CLR,,0.17,WeatherDisplay:10.37,2013-03-31 22:31:00,
2013-03-31 18:36:00,51.1,48.3,22.74,WSW,252,5.8,5.8,90,0.01,CLR,,0.17,WeatherDisplay:10.37,2013-03-31 22:36:00,
2013-03-31 18:41:00,51.1,48.6,31.40,WSW,252,1.1,0.0,91,0.01,CLR,,0.17,WeatherDisplay:10.37,2013-03-31 22:41:00,
2013-03-31 18:46:00,51.0,48.5,22.74,WSW,253,3.0,3.0,91,0.01,CLR,,0.17,WeatherDisplay:10.37,2013-03-31 22:46:00,
2013-03-31 18:51:00,51.0,48.2,22.74,WSW,254,3.5,3.5,90,0.00,CLR,,0.17,WeatherDisplay:10.37,2013-03-31 22:51:00,
2013-03-31 18:56:00,50.9,48.1,22.74,West,260,0.0,0.0,90,0.00,CLR,,0.17,WeatherDisplay:10.37,2013-03-31 22:56:00,
2013-03-31 19:01:00,50.8,48.0,22.74,West,266,4.6,4.6,90,0.00,CLR,,0.17,WeatherDisplay:10.37,2013-03-31 23:01:00,
2013-03-31 19:06:00,50.8,48.0,22.74,West,261,3.5,0.0,90,0.00,CLR,,0.17,WeatherDisplay:10.37,2013-03-31 23:06:00,
2013-03-31 19:11:00,50.8,48.3,22.74,West,260,0.0,0.0,91,0.00,CLR,,0.17,WeatherDisplay:10.37,2013-03-31 23:11:00,
2013-03-31 19:16:00,50.7,48.2,22.74,West,260,3.5,3.5,91,0.00,CLR,,0.17,WeatherDisplay:10.37,2013-03-31 23:16:00,
2013-03-31 19:21:00,50.7,48.2,22.74,West,261,1.1,0.0,91,0.00,CLR,,0.17,WeatherDisplay:10.37,2013-03-31 23:21:00,
2013-03-31 19:27:00,50.6,48.1,22.74,West,260,0.0,0.0,91,0.00,CLR,,0.17,WeatherDisplay:10.37,2013-03-31 23:27:00,
2013-03-31 19:32:00,50.5,48.0,22.74,West,263,5.0,5.0,91,0.00,CLR,,0.17,WeatherDisplay:10.37,2013-03-31 23:32:00,
2013-03-31 19:37:00,50.4,47.9,22.74,West,263,4.6,4.6,91,0.00,CLR,,0.17,WeatherDisplay:10.37,2013-03-31 23:37:00,
2013-03-31 19:42:00,50.3,47.8,22.74,West,262,3.0,3.0,91,0.00,CLR,,0.17,WeatherDisplay:10.37,2013-03-31 23:42:00,
2013-03-31 19:47:00,50.1,47.6,22.74,West,265,5.8,5.8,91,0.00,CLR,,0.17,WeatherDisplay:10.37,2013-03-31 23:47:00,
2013-03-31 19:52:00,50.1,47.6,22.74,WSW,253,8.1,8.1,91,0.00,CLR,,0.17,WeatherDisplay:10.37,2013-03-31 23:52:00,
2013-03-31 19:58:00,50.0,47.2,22.74,WSW,250,5.0,5.0,90,0.00,CLR,,0.17,WeatherDisplay:10.37,2013-03-31 23:58:00,
2013-03-31 20:03:00,50.0,47.2,22.74,WSW,248,3.5,3.5,90,0.00,CLR,,0.17,WeatherDisplay:10.37,2013-04-01 00:03:00,
2013-03-31 20:08:00,49.9,46.8,22.74,WSW,246,3.5,3.5,89,0.00,CLR,,0.17,WeatherDisplay:10.37,2013-04-01 00:08:00,
2013-03-31 20:13:00,50.0,46.9,22.74,WSW,245,5.8,5.8,89,0.00,CLR,,0.17,WeatherDisplay:10.37,2013-04-01 00:13:00,
2013-03-31 20:18:00,50.0,46.9,22.74,SW,229,9.2,9.2,89,0.00,CLR,,0.17,WeatherDisplay:10.37,2013-04-01 00:18:00,
2013-03-31 20:23:00,50.0,46.6,22.74,SW,236,6.9,6.9,88,0.00,CLR,,0.17,WeatherDisplay:10.37,2013-04-01 00:23:00,
2013-03-31 20:28:00,50.0,46.6,22.74,WSW,251,8.1,8.1,88,0.00,CLR,,0.17,WeatherDisplay:10.37,2013-04-01 00:28:00,
2013-03-31 20:33:00,50.0,46.6,22.74,WSW,245,7.0,7.0,88,0.00,CLR,,0.17,WeatherDisplay:10.37,2013-04-01 00:33:00,
2013-03-31 20:38:00,50.0,46.6,22.74,WSW,241,6.9,6.9,88,0.00,CLR,,0.17,WeatherDisplay:10.37,2013-04-01 00:38:00,
2013-03-31 20:43:00,50.0,46.6,22.74,WSW,251,0.0,0.0,88,0.00,CLR,,0.17,WeatherDisplay:10.37,2013-04-01 00:43:00,
2013-03-31 20:48:00,50.0,46.6,22.74,WSW,246,9.2,9.2,88,0.00,CLR,,0.17,WeatherDisplay:10.37,2013-04-01 00:48:00,
2013-03-31 20:53:00,50.0,46.6,22.74,WSW,240,3.5,0.0,88,0.00,CLR,,0.17,WeatherDisplay:10.37,2013-04-01 00:53:00,
2013-03-31 20:58:00,50.0,46.6,22.74,SW,236,3.5,3.5,88,0.00,CLR,,0.17,WeatherDisplay:10.37,2013-04-01 00:58:00,
2013-03-31 21:03:00,50.0,46.6,22.74,SW,221,1.1,1.1,88,0.00,CLR,,0.17,WeatherDisplay:10.37,2013-04-01 01:03:00,
2013-03-31 21:08:00,49.9,46.5,22.74,WSW,244,5.0,5.0,88,0.00,CLR,,0.17,WeatherDisplay:10.37,2013-04-01 01:08:00,
2013-03-31 21:13:00,49.9,46.5,22.74,West,265,0.0,0.0,88,0.00,CLR,,0.17,WeatherDisplay:10.37,2013-04-01 01:13:00,
2013-03-31 21:18:00,49.9,46.5,22.74,West,267,2.3,0.0,88,0.00,CLR,,0.17,WeatherDisplay:10.37,2013-04-01 01:18:00,
2013-03-31 21:23:00,49.8,46.4,22.74,West,274,4.6,4.6,88,0.00,CLR,,0.17,WeatherDisplay:10.37,2013-04-01 01:23:00,
2013-03-31 21:28:00,49.8,46.4,22.74,WSW,257,8.1,8.1,88,0.00,CLR,,0.17,WeatherDisplay:10.37,2013-04-01 01:28:00,
2013-03-31 21:33:00,49.8,46.4,22.74,WSW,257,3.0,3.0,88,0.00,CLR,,0.17,WeatherDisplay:10.37,2013-04-01 01:33:00,
2013-03-31 21:38:00,49.7,46.3,22.74,WSW,242,0.0,0.0,88,0.00,CLR,,0.17,WeatherDisplay:10.37,2013-04-01 01:38:00,
2013-03-31 21:43:00,49.6,46.2,22.74,WSW,242,3.5,3.5,88,0.00,CLR,,0.17,WeatherDisplay:10.37,2013-04-01 01:43:00,
2013-03-31 21:48:00,49.5,46.1,22.74,WSW,240,5.0,5.0,88,0.00,CLR,,0.17,WeatherDisplay:10.37,2013-04-01 01:48:00,
2013-03-31 21:53:00,49.4,46.0,22.74,WSW,240,2.3,0.0,88,0.00,CLR,,0.17,WeatherDisplay:10.37,2013-04-01 01:53:00,
2013-03-31 21:58:00,49.3,45.9,22.74,WSW,240,0.0,0.0,88,0.00,CLR,,0.17,WeatherDisplay:10.37,2013-04-01 01:58:00,
2013-03-31 22:03:00,49.2,45.8,22.74,WSW,240,3.5,3.5,88,0.00,CLR,,0.17,WeatherDisplay:10.37,2013-04-01 02:03:00,
2013-03-31 22:08:00,49.0,45.6,22.74,WSW,239,4.0,4.0,88,0.00,CLR,,0.17,WeatherDisplay:10.37,2013-04-01 02:08:00,
2013-03-31 22:13:00,48.9,45.5,22.74,WSW,240,3.5,3.5,88,0.00,CLR,,0.17,WeatherDisplay:10.37,2013-04-01 02:13:00,
2013-03-31 22:18:00,48.8,45.7,22.74,WSW,239,0.0,0.0,89,0.00,CLR,,0.17,WeatherDisplay:10.37,2013-04-01 02:18:00,
2013-03-31 22:24:00,48.8,45.7,22.74,WSW,239,2.3,2.3,89,0.00,CLR,,0.17,WeatherDisplay:10.37,2013-04-01 02:24:00,
2013-03-31 22:29:00,48.6,45.5,22.74,WSW,238,0.0,0.0,89,0.00,CLR,,0.17,WeatherDisplay:10.37,2013-04-01 02:29:00,
2013-03-31 22:34:00,48.5,45.4,22.74,WSW,238,0.0,0.0,89,0.00,CLR,,0.17,WeatherDisplay:10.37,2013-04-01 02:34:00,
2013-03-31 22:39:00,48.3,45.2,22.74,WSW,239,0.0,0.0,89,0.00,CLR,,0.17,WeatherDisplay:10.37,2013-04-01 02:39:00,
2013-03-31 22:44:00,48.1,45.0,22.74,WSW,239,1.1,1.1,89,0.00,CLR,,0.17,WeatherDisplay:10.37,2013-04-01 02:44:00,
2013-03-31 22:49:00,48.0,45.2,22.74,WSW,238,3.5,3.5,90,0.00,CLR,,0.17,WeatherDisplay:10.37,2013-04-01 02:49:00,
2013-03-31 22:54:00,47.9,45.1,22.74,WSW,239,0.0,0.0,90,0.00,CLR,,0.17,WeatherDisplay:10.37,2013-04-01 02:54:00,
2013-03-31 22:59:00,47.7,44.9,22.74,WSW,239,0.0,0.0,90,0.00,CLR,,0.17,WeatherDisplay:10.37,2013-04-01 02:59:00,
2013-03-31 23:04:00,47.6,44.8,22.74,WSW,240,0.0,0.0,90,0.00,CLR,,0.17,WeatherDisplay:10.37,2013-04-01 03:04:00,
2013-03-31 23:09:00,47.5,44.7,22.74,WSW,239,3.5,3.5,90,0.00,CLR,,0.17,WeatherDisplay:10.37,2013-04-01 03:09:00,
2013-03-31 23:14:00,47.2,44.4,22.74,WSW,239,0.0,0.0,90,0.00,CLR,,0.17,WeatherDisplay:10.37,2013-04-01 03:14:00,
2013-03-31 23:19:00,47.2,44.7,22.74,WSW,239,3.5,3.5,91,0.00,CLR,,0.17,WeatherDisplay:10.37,2013-04-01 03:19:00,
2013-03-31 23:24:00,47.0,44.5,22.74,WSW,238,0.0,0.0,91,0.00,CLR,,0.17,WeatherDisplay:10.37,2013-04-01 03:24:00,
2013-03-31 23:29:00,46.7,44.2,22.74,WSW,240,2.0,2.0,91,0.00,CLR,,0.17,WeatherDisplay:10.37,2013-04-01 03:29:00,
2013-03-31 23:34:00,46.4,43.9,22.74,WSW,239,0.0,0.0,91,0.00,CLR,,0.17,WeatherDisplay:10.37,2013-04-01 03:34:00,
2013-03-31 23:39:00,46.2,43.7,22.74,WSW,238,0.0,0.0,91,0.00,CLR,,0.17,WeatherDisplay:10.37,2013-04-01 03:39:00,
2013-03-31 23:44:00,46.1,43.9,22.74,WSW,240,0.0,0.0,92,0.00,CLR,,0.17,WeatherDisplay:10.37,2013-04-01 03:44:00,
2013-03-31 23:49:00,46.0,43.8,22.74,WSW,238,0.0,0.0,92,0.00,CLR,,0.17,WeatherDisplay:10.37,2013-04-01 03:49:00,
2013-03-31 23:54:00,45.9,43.7,22.74,WSW,240,1.1,0.0,92,0.00,CLR,,0.17,WeatherDisplay:10.37,2013-04-01 03:54:00,
2013-03-31 23:59:00,45.6,43.4,22.74,WSW,239,0.0,0.0,92,0.00,CLR,,0.17,WeatherDisplay:10.37,2013-04-01 03:59:00,